sensor_id;sensor_type;location;lat;lon;timestamp;temperature;humidity
22469;DHT22;11401;50.792;4.352;2022-08-02T00:00:36;24.40;54.10
22469;DHT22;11401;50.792;4.352;2022-08-02T00:03:02;24.40;54.20
22469;DHT22;11401;50.792;4.352;2022-08-02T00:05:30;24.40;54.30
22469;DHT22;11401;50.792;4.352;2022-08-02T00:07:56;24.40;54.20
22469;DHT22;11401;50.792;4.352;2022-08-02T00:10:23;24.40;54.20
22469;DHT22;11401;50.792;4.352;2022-08-02T00:12:50;24.40;54.30
22469;DHT22;11401;50.792;4.352;2022-08-02T00:15:18;24.40;54.30
22469;DHT22;11401;50.792;4.352;2022-08-02T00:17:45;24.40;54.30
22469;DHT22;11401;50.792;4.352;2022-08-02T00:20:14;24.30;54.10
22469;DHT22;11401;50.792;4.352;2022-08-02T00:22:41;24.40;54.30
22469;DHT22;11401;50.792;4.352;2022-08-02T00:25:08;24.40;54.20
22469;DHT22;11401;50.792;4.352;2022-08-02T00:27:35;24.40;54.20
22469;DHT22;11401;50.792;4.352;2022-08-02T00:30:02;24.40;54.20
22469;DHT22;11401;50.792;4.352;2022-08-02T00:32:29;24.40;54.30
22469;DHT22;11401;50.792;4.352;2022-08-02T00:34:56;24.40;54.30
22469;DHT22;11401;50.792;4.352;2022-08-02T00:37:23;24.40;54.20
22469;DHT22;11401;50.792;4.352;2022-08-02T00:39:50;24.40;54.30
22469;DHT22;11401;50.792;4.352;2022-08-02T00:42:17;24.30;54.10
22469;DHT22;11401;50.792;4.352;2022-08-02T00:44:44;24.40;54.40
22469;DHT22;11401;50.792;4.352;2022-08-02T00:47:11;24.30;54.30
22469;DHT22;11401;50.792;4.352;2022-08-02T00:49:45;24.30;54.30
22469;DHT22;11401;50.792;4.352;2022-08-02T00:52:12;24.20;54.40
22469;DHT22;11401;50.792;4.352;2022-08-02T00:54:40;24.30;54.60
22469;DHT22;11401;50.792;4.352;2022-08-02T00:57:07;24.20;54.50
22469;DHT22;11401;50.792;4.352;2022-08-02T00:59:33;24.20;54.40
22469;DHT22;11401;50.792;4.352;2022-08-02T01:02:00;24.30;54.40
22469;DHT22;11401;50.792;4.352;2022-08-02T01:04:28;24.20;54.40
22469;DHT22;11401;50.792;4.352;2022-08-02T01:06:59;24.20;54.30
22469;DHT22;11401;50.792;4.352;2022-08-02T01:09:26;24.20;54.50
22469;DHT22;11401;50.792;4.352;2022-08-02T01:11:53;24.20;54.40
22469;DHT22;11401;50.792;4.352;2022-08-02T01:14:22;24.20;54.30
22469;DHT22;11401;50.792;4.352;2022-08-02T01:17:05;24.20;54.50
22469;DHT22;11401;50.792;4.352;2022-08-02T01:26:00;24.20;54.70
22469;DHT22;11401;50.792;4.352;2022-08-02T01:28:41;24.30;54.60
22469;DHT22;11401;50.792;4.352;2022-08-02T01:33:46;24.20;54.70
22469;DHT22;11401;50.792;4.352;2022-08-02T01:36:17;24.30;54.80
22469;DHT22;11401;50.792;4.352;2022-08-02T01:38:48;24.20;55.50
22469;DHT22;11401;50.792;4.352;2022-08-02T01:41:22;24.20;54.80
22469;DHT22;11401;50.792;4.352;2022-08-02T01:43:54;24.20;54.90
22469;DHT22;11401;50.792;4.352;2022-08-02T01:46:24;24.20;54.90
22469;DHT22;11401;50.792;4.352;2022-08-02T01:48:54;24.20;54.80
22469;DHT22;11401;50.792;4.352;2022-08-02T01:51:22;24.20;54.90
22469;DHT22;11401;50.792;4.352;2022-08-02T01:54:14;24.20;54.90
22469;DHT22;11401;50.792;4.352;2022-08-02T01:56:43;24.20;54.90
22469;DHT22;11401;50.792;4.352;2022-08-02T01:59:14;24.20;54.80
22469;DHT22;11401;50.792;4.352;2022-08-02T02:01:42;24.20;54.90
22469;DHT22;11401;50.792;4.352;2022-08-02T02:04:12;24.20;54.80
22469;DHT22;11401;50.792;4.352;2022-08-02T02:06:39;24.20;54.80
22469;DHT22;11401;50.792;4.352;2022-08-02T02:09:08;24.20;54.70
22469;DHT22;11401;50.792;4.352;2022-08-02T02:11:35;24.20;54.80
22469;DHT22;11401;50.792;4.352;2022-08-02T02:14:23;24.20;54.80
22469;DHT22;11401;50.792;4.352;2022-08-02T02:16:51;24.10;54.90
22469;DHT22;11401;50.792;4.352;2022-08-02T02:19:19;24.20;54.90
22469;DHT22;11401;50.792;4.352;2022-08-02T02:21:48;24.20;54.90
22469;DHT22;11401;50.792;4.352;2022-08-02T02:24:15;24.20;55.00
22469;DHT22;11401;50.792;4.352;2022-08-02T02:26:43;24.20;55.00
22469;DHT22;11401;50.792;4.352;2022-08-02T02:29:20;24.20;55.10
22469;DHT22;11401;50.792;4.352;2022-08-02T02:31:49;24.10;55.00
22469;DHT22;11401;50.792;4.352;2022-08-02T02:34:31;24.10;55.10
22469;DHT22;11401;50.792;4.352;2022-08-02T02:37:02;24.20;55.20
22469;DHT22;11401;50.792;4.352;2022-08-02T02:39:31;24.10;55.30
22469;DHT22;11401;50.792;4.352;2022-08-02T02:42:02;24.10;55.40
22469;DHT22;11401;50.792;4.352;2022-08-02T02:44:30;24.10;55.40
22469;DHT22;11401;50.792;4.352;2022-08-02T02:46:59;24.10;55.50
22469;DHT22;11401;50.792;4.352;2022-08-02T02:49:31;24.00;55.60
22469;DHT22;11401;50.792;4.352;2022-08-02T02:51:58;24.10;55.70
22469;DHT22;11401;50.792;4.352;2022-08-02T02:54:27;24.10;55.90
22469;DHT22;11401;50.792;4.352;2022-08-02T02:57:01;24.10;56.00
22469;DHT22;11401;50.792;4.352;2022-08-02T02:59:29;24.10;56.10
22469;DHT22;11401;50.792;4.352;2022-08-02T03:01:56;24.10;56.20
22469;DHT22;11401;50.792;4.352;2022-08-02T03:04:27;24.10;56.30
22469;DHT22;11401;50.792;4.352;2022-08-02T03:07:14;24.10;56.20
22469;DHT22;11401;50.792;4.352;2022-08-02T03:09:41;24.10;56.40
22469;DHT22;11401;50.792;4.352;2022-08-02T03:12:09;24.00;56.30
22469;DHT22;11401;50.792;4.352;2022-08-02T03:14:43;24.10;56.50
22469;DHT22;11401;50.792;4.352;2022-08-02T03:17:14;24.10;56.50
22469;DHT22;11401;50.792;4.352;2022-08-02T03:19:42;24.00;56.60
22469;DHT22;11401;50.792;4.352;2022-08-02T03:22:10;24.00;56.70
22469;DHT22;11401;50.792;4.352;2022-08-02T03:24:37;24.00;56.90
22469;DHT22;11401;50.792;4.352;2022-08-02T03:27:04;24.00;57.00
22469;DHT22;11401;50.792;4.352;2022-08-02T03:29:31;24.00;57.10
22469;DHT22;11401;50.792;4.352;2022-08-02T03:32:00;24.00;57.10
22469;DHT22;11401;50.792;4.352;2022-08-02T03:34:28;24.00;57.30
22469;DHT22;11401;50.792;4.352;2022-08-02T03:36:55;24.00;57.30
22469;DHT22;11401;50.792;4.352;2022-08-02T03:39:24;24.00;57.40
22469;DHT22;11401;50.792;4.352;2022-08-02T03:41:53;24.00;57.60
22469;DHT22;11401;50.792;4.352;2022-08-02T03:44:21;24.00;57.60
22469;DHT22;11401;50.792;4.352;2022-08-02T03:46:50;24.00;57.60
22469;DHT22;11401;50.792;4.352;2022-08-02T03:49:18;24.00;57.60
22469;DHT22;11401;50.792;4.352;2022-08-02T03:51:45;24.00;57.70
22469;DHT22;11401;50.792;4.352;2022-08-02T03:54:12;24.00;58.40
22469;DHT22;11401;50.792;4.352;2022-08-02T03:56:40;24.00;57.80
22469;DHT22;11401;50.792;4.352;2022-08-02T03:59:12;24.00;57.90
22469;DHT22;11401;50.792;4.352;2022-08-02T04:01:39;24.00;57.90
22469;DHT22;11401;50.792;4.352;2022-08-02T04:04:06;24.00;58.10
22469;DHT22;11401;50.792;4.352;2022-08-02T04:06:33;24.00;58.10
22469;DHT22;11401;50.792;4.352;2022-08-02T04:09:05;24.00;58.10
22469;DHT22;11401;50.792;4.352;2022-08-02T04:11:32;24.00;58.20
22469;DHT22;11401;50.792;4.352;2022-08-02T04:14:05;24.00;58.20
22469;DHT22;11401;50.792;4.352;2022-08-02T04:16:43;24.00;58.20
22469;DHT22;11401;50.792;4.352;2022-08-02T04:19:36;24.00;58.20
22469;DHT22;11401;50.792;4.352;2022-08-02T04:22:06;24.00;58.30
22469;DHT22;11401;50.792;4.352;2022-08-02T04:24:39;24.00;58.30
22469;DHT22;11401;50.792;4.352;2022-08-02T04:27:08;24.00;58.30
22469;DHT22;11401;50.792;4.352;2022-08-02T04:29:56;24.00;58.30
22469;DHT22;11401;50.792;4.352;2022-08-02T04:32:24;23.90;58.30
22469;DHT22;11401;50.792;4.352;2022-08-02T04:34:52;23.90;58.30
22469;DHT22;11401;50.792;4.352;2022-08-02T04:37:39;23.90;58.30
22469;DHT22;11401;50.792;4.352;2022-08-02T04:40:26;23.90;58.30
22469;DHT22;11401;50.792;4.352;2022-08-02T04:42:53;23.90;58.20
22469;DHT22;11401;50.792;4.352;2022-08-02T04:45:20;24.00;58.30
22469;DHT22;11401;50.792;4.352;2022-08-02T04:47:47;23.90;58.30
22469;DHT22;11401;50.792;4.352;2022-08-02T04:50:29;23.90;58.40
22469;DHT22;11401;50.792;4.352;2022-08-02T04:52:56;23.90;58.30
22469;DHT22;11401;50.792;4.352;2022-08-02T04:55:23;23.90;58.30
22469;DHT22;11401;50.792;4.352;2022-08-02T04:57:55;23.90;58.30
22469;DHT22;11401;50.792;4.352;2022-08-02T05:00:24;23.90;58.40
22469;DHT22;11401;50.792;4.352;2022-08-02T05:02:52;23.90;58.40
22469;DHT22;11401;50.792;4.352;2022-08-02T05:05:19;23.90;58.50
22469;DHT22;11401;50.792;4.352;2022-08-02T05:07:46;23.90;58.40
22469;DHT22;11401;50.792;4.352;2022-08-02T05:10:13;23.80;58.40
22469;DHT22;11401;50.792;4.352;2022-08-02T05:12:41;23.90;58.50
22469;DHT22;11401;50.792;4.352;2022-08-02T05:15:10;23.80;58.50
22469;DHT22;11401;50.792;4.352;2022-08-02T05:17:39;23.80;58.60
22469;DHT22;11401;50.792;4.352;2022-08-02T05:20:16;23.80;58.70
22469;DHT22;11401;50.792;4.352;2022-08-02T05:22:45;23.80;58.70
22469;DHT22;11401;50.792;4.352;2022-08-02T05:25:12;23.80;58.70
22469;DHT22;11401;50.792;4.352;2022-08-02T05:27:39;23.90;58.60
22469;DHT22;11401;50.792;4.352;2022-08-02T05:30:06;23.80;58.60
22469;DHT22;11401;50.792;4.352;2022-08-02T05:32:34;23.80;58.70
22469;DHT22;11401;50.792;4.352;2022-08-02T05:35:08;23.90;58.70
22469;DHT22;11401;50.792;4.352;2022-08-02T05:37:35;23.80;58.70
22469;DHT22;11401;50.792;4.352;2022-08-02T05:40:02;23.80;58.60
22469;DHT22;11401;50.792;4.352;2022-08-02T05:42:38;23.80;58.70
22469;DHT22;11401;50.792;4.352;2022-08-02T05:45:05;23.80;58.70
22469;DHT22;11401;50.792;4.352;2022-08-02T05:47:32;23.80;58.70
22469;DHT22;11401;50.792;4.352;2022-08-02T05:50:00;23.80;58.60
22469;DHT22;11401;50.792;4.352;2022-08-02T05:52:49;23.80;58.60
22469;DHT22;11401;50.792;4.352;2022-08-02T05:55:23;23.90;58.60
22469;DHT22;11401;50.792;4.352;2022-08-02T06:00:31;23.90;58.50
22469;DHT22;11401;50.792;4.352;2022-08-02T06:05:43;23.90;58.50
22469;DHT22;11401;50.792;4.352;2022-08-02T06:08:14;23.90;58.40
22469;DHT22;11401;50.792;4.352;2022-08-02T06:10:42;23.90;58.40
22469;DHT22;11401;50.792;4.352;2022-08-02T06:13:14;23.90;58.40
22469;DHT22;11401;50.792;4.352;2022-08-02T06:15:44;23.90;58.90
22469;DHT22;11401;50.792;4.352;2022-08-02T06:18:20;23.90;59.00
22469;DHT22;11401;50.792;4.352;2022-08-02T06:21:01;23.90;58.40
22469;DHT22;11401;50.792;4.352;2022-08-02T06:23:48;24.00;58.30
22469;DHT22;11401;50.792;4.352;2022-08-02T06:26:25;24.00;58.20
22469;DHT22;11401;50.792;4.352;2022-08-02T06:28:53;24.00;58.10
22469;DHT22;11401;50.792;4.352;2022-08-02T06:31:21;24.00;58.00
22469;DHT22;11401;50.792;4.352;2022-08-02T06:33:48;24.00;57.90
22469;DHT22;11401;50.792;4.352;2022-08-02T06:36:15;24.00;57.80
22469;DHT22;11401;50.792;4.352;2022-08-02T06:39:16;24.00;57.80
22469;DHT22;11401;50.792;4.352;2022-08-02T06:41:47;24.10;57.40
22469;DHT22;11401;50.792;4.352;2022-08-02T06:44:22;24.00;57.50
22469;DHT22;11401;50.792;4.352;2022-08-02T06:47:09;24.00;57.10
22469;DHT22;11401;50.792;4.352;2022-08-02T06:49:40;24.00;56.90
22469;DHT22;11401;50.792;4.352;2022-08-02T06:52:22;24.10;57.00
22469;DHT22;11401;50.792;4.352;2022-08-02T06:54:56;24.10;57.00
22469;DHT22;11401;50.792;4.352;2022-08-02T06:57:24;24.10;56.70
22469;DHT22;11401;50.792;4.352;2022-08-02T06:59:51;24.20;56.70
22469;DHT22;11401;50.792;4.352;2022-08-02T07:02:18;24.10;56.50
22469;DHT22;11401;50.792;4.352;2022-08-02T07:04:45;24.20;56.60
22469;DHT22;11401;50.792;4.352;2022-08-02T07:07:12;24.20;56.70
22469;DHT22;11401;50.792;4.352;2022-08-02T07:09:39;24.30;57.20
22469;DHT22;11401;50.792;4.352;2022-08-02T07:12:26;24.40;57.40
22469;DHT22;11401;50.792;4.352;2022-08-02T07:14:53;24.40;58.10
22469;DHT22;11401;50.792;4.352;2022-08-02T07:17:20;24.40;57.60
22469;DHT22;11401;50.792;4.352;2022-08-02T07:19:47;24.40;57.60
22469;DHT22;11401;50.792;4.352;2022-08-02T07:22:14;24.50;57.20
22469;DHT22;11401;50.792;4.352;2022-08-02T07:24:41;24.50;56.90
22469;DHT22;11401;50.792;4.352;2022-08-02T07:27:08;24.50;57.30
22469;DHT22;11401;50.792;4.352;2022-08-02T07:29:39;24.60;57.30
22469;DHT22;11401;50.792;4.352;2022-08-02T07:32:16;24.60;56.90
22469;DHT22;11401;50.792;4.352;2022-08-02T07:34:44;24.60;56.70
22469;DHT22;11401;50.792;4.352;2022-08-02T07:37:24;24.70;56.50
22469;DHT22;11401;50.792;4.352;2022-08-02T07:40:12;24.70;56.90
22469;DHT22;11401;50.792;4.352;2022-08-02T07:42:48;24.70;56.80
22469;DHT22;11401;50.792;4.352;2022-08-02T07:45:18;24.70;56.90
22469;DHT22;11401;50.792;4.352;2022-08-02T07:47:45;24.80;57.20
22469;DHT22;11401;50.792;4.352;2022-08-02T07:50:14;24.80;57.00
22469;DHT22;11401;50.792;4.352;2022-08-02T07:52:42;24.80;56.80
22469;DHT22;11401;50.792;4.352;2022-08-02T07:55:10;24.80;57.20
22469;DHT22;11401;50.792;4.352;2022-08-02T07:57:38;24.90;56.80
22469;DHT22;11401;50.792;4.352;2022-08-02T08:00:12;24.90;56.60
22469;DHT22;11401;50.792;4.352;2022-08-02T08:02:40;24.90;56.70
22469;DHT22;11401;50.792;4.352;2022-08-02T08:05:07;24.90;56.80
22469;DHT22;11401;50.792;4.352;2022-08-02T08:07:34;24.90;56.60
22469;DHT22;11401;50.792;4.352;2022-08-02T08:10:02;25.00;56.40
22469;DHT22;11401;50.792;4.352;2022-08-02T08:12:30;25.00;56.50
22469;DHT22;11401;50.792;4.352;2022-08-02T08:14:57;25.00;56.60
22469;DHT22;11401;50.792;4.352;2022-08-02T08:17:25;25.00;56.50
22469;DHT22;11401;50.792;4.352;2022-08-02T08:19:52;25.00;56.60
22469;DHT22;11401;50.792;4.352;2022-08-02T08:22:19;25.10;56.50
22469;DHT22;11401;50.792;4.352;2022-08-02T08:24:47;25.10;56.50
22469;DHT22;11401;50.792;4.352;2022-08-02T08:27:18;25.10;56.30
22469;DHT22;11401;50.792;4.352;2022-08-02T08:29:45;25.10;56.30
22469;DHT22;11401;50.792;4.352;2022-08-02T08:32:12;25.10;56.30
22469;DHT22;11401;50.792;4.352;2022-08-02T08:34:47;25.10;56.50
22469;DHT22;11401;50.792;4.352;2022-08-02T08:37:14;25.10;56.50
22469;DHT22;11401;50.792;4.352;2022-08-02T08:39:45;25.10;56.40
22469;DHT22;11401;50.792;4.352;2022-08-02T08:42:28;25.10;56.30
22469;DHT22;11401;50.792;4.352;2022-08-02T08:44:56;25.20;56.50
22469;DHT22;11401;50.792;4.352;2022-08-02T08:47:34;25.20;56.40
22469;DHT22;11401;50.792;4.352;2022-08-02T08:50:07;25.20;56.20
22469;DHT22;11401;50.792;4.352;2022-08-02T08:52:48;25.20;56.40
22469;DHT22;11401;50.792;4.352;2022-08-02T08:55:16;25.20;56.40
22469;DHT22;11401;50.792;4.352;2022-08-02T08:57:44;25.20;56.40
22469;DHT22;11401;50.792;4.352;2022-08-02T09:00:12;25.20;56.40
22469;DHT22;11401;50.792;4.352;2022-08-02T09:02:42;25.20;56.30
22469;DHT22;11401;50.792;4.352;2022-08-02T09:05:11;25.20;56.30
22469;DHT22;11401;50.792;4.352;2022-08-02T09:07:39;25.30;56.40
22469;DHT22;11401;50.792;4.352;2022-08-02T09:16:00;25.40;56.00
22469;DHT22;11401;50.792;4.352;2022-08-02T09:18:42;25.30;56.40
22469;DHT22;11401;50.792;4.352;2022-08-02T09:21:15;25.30;56.10
22469;DHT22;11401;50.792;4.352;2022-08-02T09:23:50;25.20;56.30
22469;DHT22;11401;50.792;4.352;2022-08-02T09:26:20;25.30;56.40
22469;DHT22;11401;50.792;4.352;2022-08-02T09:28:50;25.30;56.40
22469;DHT22;11401;50.792;4.352;2022-08-02T09:31:20;25.30;56.10
22469;DHT22;11401;50.792;4.352;2022-08-02T09:33:56;25.30;56.40
22469;DHT22;11401;50.792;4.352;2022-08-02T09:36:26;25.30;56.20
22469;DHT22;11401;50.792;4.352;2022-08-02T09:38:58;25.30;56.10
22469;DHT22;11401;50.792;4.352;2022-08-02T09:41:32;25.30;56.00
22469;DHT22;11401;50.792;4.352;2022-08-02T09:44:00;25.30;55.80
22469;DHT22;11401;50.792;4.352;2022-08-02T09:46:33;25.30;55.90
22469;DHT22;11401;50.792;4.352;2022-08-02T09:54:19;25.30;55.90
22469;DHT22;11401;50.792;4.352;2022-08-02T09:56:48;25.40;55.80
22469;DHT22;11401;50.792;4.352;2022-08-02T09:59:18;25.30;55.70
22469;DHT22;11401;50.792;4.352;2022-08-02T10:01:46;25.40;55.90
22469;DHT22;11401;50.792;4.352;2022-08-02T10:04:29;25.40;55.70
22469;DHT22;11401;50.792;4.352;2022-08-02T10:06:57;25.40;55.50
22469;DHT22;11401;50.792;4.352;2022-08-02T10:09:30;25.50;55.70
22469;DHT22;11401;50.792;4.352;2022-08-02T10:11:58;25.40;55.50
22469;DHT22;11401;50.792;4.352;2022-08-02T10:14:25;25.40;55.40
22469;DHT22;11401;50.792;4.352;2022-08-02T10:16:53;25.50;55.50
22469;DHT22;11401;50.792;4.352;2022-08-02T10:19:23;25.50;55.30
22469;DHT22;11401;50.792;4.352;2022-08-02T10:22:12;25.50;55.00
22469;DHT22;11401;50.792;4.352;2022-08-02T10:24:41;25.50;55.00
22469;DHT22;11401;50.792;4.352;2022-08-02T10:27:19;25.50;54.70
22469;DHT22;11401;50.792;4.352;2022-08-02T10:29:48;25.50;54.70
22469;DHT22;11401;50.792;4.352;2022-08-02T10:32:37;25.50;54.80
22469;DHT22;11401;50.792;4.352;2022-08-02T10:35:05;25.50;54.50
22469;DHT22;11401;50.792;4.352;2022-08-02T10:38:04;25.50;54.40
22469;DHT22;11401;50.792;4.352;2022-08-02T10:40:51;25.50;54.20
22469;DHT22;11401;50.792;4.352;2022-08-02T10:43:42;25.50;54.30
22469;DHT22;11401;50.792;4.352;2022-08-02T10:46:35;25.50;54.30
22469;DHT22;11401;50.792;4.352;2022-08-02T10:49:15;25.50;54.30
22469;DHT22;11401;50.792;4.352;2022-08-02T10:54:40;25.50;55.00
22469;DHT22;11401;50.792;4.352;2022-08-02T10:57:22;25.50;54.00
22469;DHT22;11401;50.792;4.352;2022-08-02T10:59:51;25.50;54.00
22469;DHT22;11401;50.792;4.352;2022-08-02T11:02:33;25.50;53.80
22469;DHT22;11401;50.792;4.352;2022-08-02T11:05:05;25.50;53.80
22469;DHT22;11401;50.792;4.352;2022-08-02T11:10:30;25.50;53.50
22469;DHT22;11401;50.792;4.352;2022-08-02T11:13:12;25.60;53.00
22469;DHT22;11401;50.792;4.352;2022-08-02T11:21:22;25.50;53.30
22469;DHT22;11401;50.792;4.352;2022-08-02T11:23:50;25.60;53.00
22469;DHT22;11401;50.792;4.352;2022-08-02T11:28:57;25.60;53.10
22469;DHT22;11401;50.792;4.352;2022-08-02T11:31:25;25.60;53.00
22469;DHT22;11401;50.792;4.352;2022-08-02T11:33:53;25.60;52.60
22469;DHT22;11401;50.792;4.352;2022-08-02T11:36:20;25.60;52.70
22469;DHT22;11401;50.792;4.352;2022-08-02T11:38:48;25.60;52.40
22469;DHT22;11401;50.792;4.352;2022-08-02T11:41:22;25.60;52.60
22469;DHT22;11401;50.792;4.352;2022-08-02T11:44:09;25.60;52.30
22469;DHT22;11401;50.792;4.352;2022-08-02T11:46:36;25.60;52.40
22469;DHT22;11401;50.792;4.352;2022-08-02T11:49:14;25.70;52.20
22469;DHT22;11401;50.792;4.352;2022-08-02T11:52:02;25.70;52.10
22469;DHT22;11401;50.792;4.352;2022-08-02T11:54:35;25.70;52.10
22469;DHT22;11401;50.792;4.352;2022-08-02T11:57:18;25.70;52.10
22469;DHT22;11401;50.792;4.352;2022-08-02T11:59:49;25.70;52.00
22469;DHT22;11401;50.792;4.352;2022-08-02T12:02:17;25.70;52.00
22469;DHT22;11401;50.792;4.352;2022-08-02T12:04:55;25.70;52.10
22469;DHT22;11401;50.792;4.352;2022-08-02T12:07:30;25.80;52.20
22469;DHT22;11401;50.792;4.352;2022-08-02T12:10:20;25.70;52.00
22469;DHT22;11401;50.792;4.352;2022-08-02T12:12:50;25.80;51.90
22469;DHT22;11401;50.792;4.352;2022-08-02T12:15:34;25.70;52.10
22469;DHT22;11401;50.792;4.352;2022-08-02T12:18:08;25.70;51.90
22469;DHT22;11401;50.792;4.352;2022-08-02T12:20:53;25.70;52.00
22469;DHT22;11401;50.792;4.352;2022-08-02T12:23:20;25.60;52.10
22469;DHT22;11401;50.792;4.352;2022-08-02T12:26:07;25.60;52.30
22469;DHT22;11401;50.792;4.352;2022-08-02T12:28:42;25.70;52.20
22469;DHT22;11401;50.792;4.352;2022-08-02T12:31:11;25.70;52.30
22469;DHT22;11401;50.792;4.352;2022-08-02T12:33:52;25.70;52.10
22469;DHT22;11401;50.792;4.352;2022-08-02T12:36:24;25.70;51.90
22469;DHT22;11401;50.792;4.352;2022-08-02T12:38:54;25.70;51.90
22469;DHT22;11401;50.792;4.352;2022-08-02T12:41:22;25.70;52.00
22469;DHT22;11401;50.792;4.352;2022-08-02T12:43:58;25.80;51.80
22469;DHT22;11401;50.792;4.352;2022-08-02T12:46:26;25.80;51.80
22469;DHT22;11401;50.792;4.352;2022-08-02T12:48:53;25.70;51.70
22469;DHT22;11401;50.792;4.352;2022-08-02T12:51:40;25.70;51.60
22469;DHT22;11401;50.792;4.352;2022-08-02T12:54:26;25.80;51.80
22469;DHT22;11401;50.792;4.352;2022-08-02T12:57:14;25.80;51.80
22469;DHT22;11401;50.792;4.352;2022-08-02T12:59:48;25.80;51.90
22469;DHT22;11401;50.792;4.352;2022-08-02T13:02:15;25.80;51.70
22469;DHT22;11401;50.792;4.352;2022-08-02T13:04:43;25.80;51.80
22469;DHT22;11401;50.792;4.352;2022-08-02T13:07:17;25.80;51.80
22469;DHT22;11401;50.792;4.352;2022-08-02T13:09:44;25.90;51.90
22469;DHT22;11401;50.792;4.352;2022-08-02T13:12:12;25.90;51.90
22469;DHT22;11401;50.792;4.352;2022-08-02T13:14:40;25.90;51.80
22469;DHT22;11401;50.792;4.352;2022-08-02T13:17:11;25.90;51.70
22469;DHT22;11401;50.792;4.352;2022-08-02T13:19:38;26.00;52.30
22469;DHT22;11401;50.792;4.352;2022-08-02T13:22:06;25.90;51.60
22469;DHT22;11401;50.792;4.352;2022-08-02T13:24:36;25.90;51.80
22469;DHT22;11401;50.792;4.352;2022-08-02T13:27:23;25.90;52.00
22469;DHT22;11401;50.792;4.352;2022-08-02T13:29:50;26.00;52.00
22469;DHT22;11401;50.792;4.352;2022-08-02T13:32:17;26.00;52.00
22469;DHT22;11401;50.792;4.352;2022-08-02T13:34:45;26.00;52.00
22469;DHT22;11401;50.792;4.352;2022-08-02T13:37:12;26.00;52.10
22469;DHT22;11401;50.792;4.352;2022-08-02T13:39:39;26.00;52.20
22469;DHT22;11401;50.792;4.352;2022-08-02T13:42:06;26.00;52.40
22469;DHT22;11401;50.792;4.352;2022-08-02T13:44:34;26.00;52.20
22469;DHT22;11401;50.792;4.352;2022-08-02T13:47:01;26.10;52.20
22469;DHT22;11401;50.792;4.352;2022-08-02T13:49:29;26.10;52.30
22469;DHT22;11401;50.792;4.352;2022-08-02T13:52:16;26.00;52.30
22469;DHT22;11401;50.792;4.352;2022-08-02T13:54:43;26.00;52.40
22469;DHT22;11401;50.792;4.352;2022-08-02T13:57:10;26.10;52.30
22469;DHT22;11401;50.792;4.352;2022-08-02T13:59:37;26.10;52.40
22469;DHT22;11401;50.792;4.352;2022-08-02T14:02:27;26.10;52.60
22469;DHT22;11401;50.792;4.352;2022-08-02T14:04:55;26.20;52.60
22469;DHT22;11401;50.792;4.352;2022-08-02T14:07:22;26.10;52.60
22469;DHT22;11401;50.792;4.352;2022-08-02T14:09:50;26.20;52.50
22469;DHT22;11401;50.792;4.352;2022-08-02T14:12:18;26.20;52.60
22469;DHT22;11401;50.792;4.352;2022-08-02T14:14:45;26.20;52.50
22469;DHT22;11401;50.792;4.352;2022-08-02T14:17:12;26.20;52.80
22469;DHT22;11401;50.792;4.352;2022-08-02T14:19:39;26.20;53.00
22469;DHT22;11401;50.792;4.352;2022-08-02T14:22:06;26.20;53.10
22469;DHT22;11401;50.792;4.352;2022-08-02T14:24:38;26.20;53.00
22469;DHT22;11401;50.792;4.352;2022-08-02T14:27:07;26.30;52.80
22469;DHT22;11401;50.792;4.352;2022-08-02T14:29:35;26.30;52.90
22469;DHT22;11401;50.792;4.352;2022-08-02T14:32:02;26.30;53.20
22469;DHT22;11401;50.792;4.352;2022-08-02T14:34:29;26.40;53.10
22469;DHT22;11401;50.792;4.352;2022-08-02T14:36:56;26.30;53.20
22469;DHT22;11401;50.792;4.352;2022-08-02T14:39:23;26.40;54.10
22469;DHT22;11401;50.792;4.352;2022-08-02T14:41:50;26.40;54.10
22469;DHT22;11401;50.792;4.352;2022-08-02T14:44:29;26.50;54.00
22469;DHT22;11401;50.792;4.352;2022-08-02T14:46:56;26.50;54.10
22469;DHT22;11401;50.792;4.352;2022-08-02T14:49:23;26.50;54.30
22469;DHT22;11401;50.792;4.352;2022-08-02T14:51:53;26.50;54.50
22469;DHT22;11401;50.792;4.352;2022-08-02T14:54:21;26.50;53.90
22469;DHT22;11401;50.792;4.352;2022-08-02T14:57:00;26.60;54.00
22469;DHT22;11401;50.792;4.352;2022-08-02T14:59:28;26.60;53.90
22469;DHT22;11401;50.792;4.352;2022-08-02T15:01:55;26.60;54.20
22469;DHT22;11401;50.792;4.352;2022-08-02T15:04:22;26.60;53.90
22469;DHT22;11401;50.792;4.352;2022-08-02T15:06:49;26.60;54.00
22469;DHT22;11401;50.792;4.352;2022-08-02T15:09:16;26.70;54.10
22469;DHT22;11401;50.792;4.352;2022-08-02T15:11:43;26.70;54.80
22469;DHT22;11401;50.792;4.352;2022-08-02T15:14:18;26.70;54.40
22469;DHT22;11401;50.792;4.352;2022-08-02T15:16:55;26.70;54.30
22469;DHT22;11401;50.792;4.352;2022-08-02T15:19:25;26.70;53.90
22469;DHT22;11401;50.792;4.352;2022-08-02T15:22:13;26.60;53.90
22469;DHT22;11401;50.792;4.352;2022-08-02T15:24:43;26.70;53.70
22469;DHT22;11401;50.792;4.352;2022-08-02T15:27:10;26.70;53.90
22469;DHT22;11401;50.792;4.352;2022-08-02T15:29:41;26.70;53.40
22469;DHT22;11401;50.792;4.352;2022-08-02T15:32:08;26.70;53.50
22469;DHT22;11401;50.792;4.352;2022-08-02T15:34:35;26.70;54.20
22469;DHT22;11401;50.792;4.352;2022-08-02T15:37:03;26.70;53.50
22469;DHT22;11401;50.792;4.352;2022-08-02T15:39:29;26.70;53.20
22469;DHT22;11401;50.792;4.352;2022-08-02T15:41:57;26.70;53.10
22469;DHT22;11401;50.792;4.352;2022-08-02T15:44:24;26.70;53.70
22469;DHT22;11401;50.792;4.352;2022-08-02T15:46:51;26.70;53.80
22469;DHT22;11401;50.792;4.352;2022-08-02T15:49:19;26.70;53.90
22469;DHT22;11401;50.792;4.352;2022-08-02T15:51:50;26.70;53.70
22469;DHT22;11401;50.792;4.352;2022-08-02T15:54:17;26.80;53.50
22469;DHT22;11401;50.792;4.352;2022-08-02T15:56:44;26.80;53.50
22469;DHT22;11401;50.792;4.352;2022-08-02T15:59:11;26.80;53.30
22469;DHT22;11401;50.792;4.352;2022-08-02T16:01:38;26.70;54.10
22469;DHT22;11401;50.792;4.352;2022-08-02T16:04:12;26.70;53.40
22469;DHT22;11401;50.792;4.352;2022-08-02T16:06:40;26.70;53.50
22469;DHT22;11401;50.792;4.352;2022-08-02T16:09:07;26.80;53.60
22469;DHT22;11401;50.792;4.352;2022-08-02T16:11:34;26.80;53.50
22469;DHT22;11401;50.792;4.352;2022-08-02T16:14:01;26.80;53.30
22469;DHT22;11401;50.792;4.352;2022-08-02T16:16:30;26.80;53.50
22469;DHT22;11401;50.792;4.352;2022-08-02T16:18:58;26.80;53.60
22469;DHT22;11401;50.792;4.352;2022-08-02T16:21:45;26.80;53.80
22469;DHT22;11401;50.792;4.352;2022-08-02T16:24:13;26.80;53.70
22469;DHT22;11401;50.792;4.352;2022-08-02T16:26:40;26.80;53.70
22469;DHT22;11401;50.792;4.352;2022-08-02T16:29:07;26.80;53.40
22469;DHT22;11401;50.792;4.352;2022-08-02T16:31:34;26.80;53.70
22469;DHT22;11401;50.792;4.352;2022-08-02T16:34:07;26.80;53.80